sensor_id;sensor_type;location;lat;lon;timestamp;pressure;altitude;pressure_sealevel;temperature;humidity
58769;BME280;44536;47.474;19.056;2022-11-20T00:02:16;100217.38;;;1.28;90.33
58769;BME280;44536;47.474;19.056;2022-11-20T00:05:18;100205.12;;;1.30;90.37
58769;BME280;44536;47.474;19.056;2022-11-20T00:08:21;100196.72;;;1.22;91.57
58769;BME280;44536;47.474;19.056;2022-11-20T00:11:24;100191.16;;;1.10;91.94
58769;BME280;44536;47.474;19.056;2022-11-20T00:14:27;100204.69;;;1.19;92.41
58769;BME280;44536;47.474;19.056;2022-11-20T00:17:29;100201.72;;;1.28;93.63
58769;BME280;44536;47.474;19.056;2022-11-20T00:20:31;100202.44;;;1.32;94.78
58769;BME280;44536;47.474;19.056;2022-11-20T00:23:33;100202.75;;;1.24;93.63
58769;BME280;44536;47.474;19.056;2022-11-20T00:26:35;100221.16;;;1.21;95.78
58769;BME280;44536;47.474;19.056;2022-11-20T00:29:37;100232.44;;;1.22;94.55
58769;BME280;44536;47.474;19.056;2022-11-20T00:32:39;100226.72;;;1.34;91.91
58769;BME280;44536;47.474;19.056;2022-11-20T00:35:41;100218.97;;;1.32;91.55
58769;BME280;44536;47.474;19.056;2022-11-20T00:38:43;100240.81;;;1.08;92.01
58769;BME280;44536;47.474;19.056;2022-11-20T00:41:46;100251.25;;;1.08;91.49
58769;BME280;44536;47.474;19.056;2022-11-20T00:44:48;100248.84;;;1.25;90.91
58769;BME280;44536;47.474;19.056;2022-11-20T00:47:50;100227.25;;;1.00;91.79
58769;BME280;44536;47.474;19.056;2022-11-20T00:50:52;100219.63;;;0.94;92.70
58769;BME280;44536;47.474;19.056;2022-11-20T00:53:56;100216.59;;;1.05;93.08
58769;BME280;44536;47.474;19.056;2022-11-20T00:56:58;100214.59;;;1.11;91.56
58769;BME280;44536;47.474;19.056;2022-11-20T01:00:00;100212.09;;;1.08;90.78
58769;BME280;44536;47.474;19.056;2022-11-20T01:03:02;100212.38;;;1.02;92.20
58769;BME280;44536;47.474;19.056;2022-11-20T01:06:09;100207.25;;;0.99;91.55
58769;BME280;44536;47.474;19.056;2022-11-20T01:09:12;100207.09;;;1.04;91.50
58769;BME280;44536;47.474;19.056;2022-11-20T01:12:14;100205.91;;;0.89;93.03
58769;BME280;44536;47.474;19.056;2022-11-20T01:15:16;100214.88;;;0.82;94.67
58769;BME280;44536;47.474;19.056;2022-11-20T01:18:19;100216.06;;;0.96;95.19
58769;BME280;44536;47.474;19.056;2022-11-20T01:21:21;100214.16;;;0.78;96.75
58769;BME280;44536;47.474;19.056;2022-11-20T01:24:24;100217.09;;;0.92;96.70
58769;BME280;44536;47.474;19.056;2022-11-20T01:27:26;100207.69;;;0.88;97.64
58769;BME280;44536;47.474;19.056;2022-11-20T01:30:28;100213.50;;;0.95;97.56
58769;BME280;44536;47.474;19.056;2022-11-20T01:33:30;100212.94;;;1.09;97.19
58769;BME280;44536;47.474;19.056;2022-11-20T01:36:33;100212.03;;;1.10;98.48
58769;BME280;44536;47.474;19.056;2022-11-20T01:39:35;100210.09;;;1.15;98.30
58769;BME280;44536;47.474;19.056;2022-11-20T01:42:37;100200.91;;;1.05;100.00
58769;BME280;44536;47.474;19.056;2022-11-20T01:49:04;100204.09;;;1.13;99.10
58769;BME280;44536;47.474;19.056;2022-11-20T01:55:19;100201.22;;;1.19;99.09
58769;BME280;44536;47.474;19.056;2022-11-20T01:58:25;100195.50;;;1.09;99.36
58769;BME280;44536;47.474;19.056;2022-11-20T02:01:29;100189.31;;;1.12;99.65
58769;BME280;44536;47.474;19.056;2022-11-20T02:04:31;100198.25;;;1.06;100.00
58769;BME280;44536;47.474;19.056;2022-11-20T02:07:33;100187.62;;;1.11;99.48
58769;BME280;44536;47.474;19.056;2022-11-20T02:10:36;100184.94;;;1.12;100.00
58769;BME280;44536;47.474;19.056;2022-11-20T02:13:38;100195.88;;;1.22;99.36
58769;BME280;44536;47.474;19.056;2022-11-20T02:16:47;100207.53;;;1.13;100.00
58769;BME280;44536;47.474;19.056;2022-11-20T02:19:50;100202.50;;;1.09;100.00
58769;BME280;44536;47.474;19.056;2022-11-20T02:22:54;100201.16;;;1.20;100.00
58769;BME280;44536;47.474;19.056;2022-11-20T02:25:58;100199.69;;;1.35;100.00
58769;BME280;44536;47.474;19.056;2022-11-20T02:29:02;100205.16;;;1.29;100.00
58769;BME280;44536;47.474;19.056;2022-11-20T02:32:05;100210.41;;;1.29;100.00
58769;BME280;44536;47.474;19.056;2022-11-20T02:35:08;100194.47;;;1.35;100.00
58769;BME280;44536;47.474;19.056;2022-11-20T02:38:11;100175.28;;;1.36;99.73
58769;BME280;44536;47.474;19.056;2022-11-20T02:41:13;100176.63;;;1.24;100.00
58769;BME280;44536;47.474;19.056;2022-11-20T02:44:15;100178.12;;;1.30;99.42
58769;BME280;44536;47.474;19.056;2022-11-20T02:47:17;100179.34;;;1.43;97.79
58769;BME280;44536;47.474;19.056;2022-11-20T02:50:19;100175.34;;;1.35;99.04
58769;BME280;44536;47.474;19.056;2022-11-20T02:53:21;100176.06;;;1.38;99.46
58769;BME280;44536;47.474;19.056;2022-11-20T02:56:23;100181.41;;;1.35;98.62
58769;BME280;44536;47.474;19.056;2022-11-20T02:59:26;100175.81;;;1.44;96.90
58769;BME280;44536;47.474;19.056;2022-11-20T03:02:31;100164.78;;;1.38;98.62
58769;BME280;44536;47.474;19.056;2022-11-20T03:05:33;100157.66;;;1.41;98.01
58769;BME280;44536;47.474;19.056;2022-11-20T03:08:35;100161.38;;;1.36;99.00
58769;BME280;44536;47.474;19.056;2022-11-20T03:11:37;100148.66;;;1.48;96.62
58769;BME280;44536;47.474;19.056;2022-11-20T03:14:39;100148.72;;;1.47;96.91
58769;BME280;44536;47.474;19.056;2022-11-20T03:17:42;100150.84;;;1.37;97.89
58769;BME280;44536;47.474;19.056;2022-11-20T03:20:43;100147.72;;;1.29;99.21
58769;BME280;44536;47.474;19.056;2022-11-20T03:23:46;100159.19;;;1.25;98.94
58769;BME280;44536;47.474;19.056;2022-11-20T03:26:48;100176.25;;;1.33;99.48
58769;BME280;44536;47.474;19.056;2022-11-20T03:29:50;100186.81;;;1.52;95.67
58769;BME280;44536;47.474;19.056;2022-11-20T03:32:52;100187.69;;;1.31;96.99
58769;BME280;44536;47.474;19.056;2022-11-20T03:36:00;100188.53;;;1.31;96.86
58769;BME280;44536;47.474;19.056;2022-11-20T03:39:02;100177.62;;;1.42;95.83
58769;BME280;44536;47.474;19.056;2022-11-20T03:42:04;100166.16;;;1.46;95.85
58769;BME280;44536;47.474;19.056;2022-11-20T03:45:26;100163.53;;;1.46;96.01
58769;BME280;44536;47.474;19.056;2022-11-20T03:48:28;100156.22;;;1.54;94.31
58769;BME280;44536;47.474;19.056;2022-11-20T03:51:31;100155.81;;;1.43;95.84
58769;BME280;44536;47.474;19.056;2022-11-20T03:54:33;100158.75;;;1.36;96.77
58769;BME280;44536;47.474;19.056;2022-11-20T03:57:35;100160.19;;;1.43;94.61
58769;BME280;44536;47.474;19.056;2022-11-20T04:00:38;100156.00;;;1.59;93.75
58769;BME280;44536;47.474;19.056;2022-11-20T04:03:40;100154.25;;;1.59;94.07
58769;BME280;44536;47.474;19.056;2022-11-20T04:06:42;100147.38;;;1.57;94.76
58769;BME280;44536;47.474;19.056;2022-11-20T04:09:45;100144.28;;;1.49;95.21
58769;BME280;44536;47.474;19.056;2022-11-20T04:12:46;100151.25;;;1.48;95.66
58769;BME280;44536;47.474;19.056;2022-11-20T04:15:49;100142.75;;;1.63;94.28
58769;BME280;44536;47.474;19.056;2022-11-20T04:18:54;100136.72;;;1.61;94.38
58769;BME280;44536;47.474;19.056;2022-11-20T04:21:57;100129.47;;;1.68;93.91
58769;BME280;44536;47.474;19.056;2022-11-20T04:24:59;100127.00;;;1.65;93.14
58769;BME280;44536;47.474;19.056;2022-11-20T04:28:01;100121.66;;;1.48;94.25
58769;BME280;44536;47.474;19.056;2022-11-20T04:31:04;100129.63;;;1.65;93.23
58769;BME280;44536;47.474;19.056;2022-11-20T04:34:06;100128.75;;;1.64;93.35
58769;BME280;44536;47.474;19.056;2022-11-20T04:37:08;100119.28;;;1.62;94.13
58769;BME280;44536;47.474;19.056;2022-11-20T04:40:11;100129.63;;;1.65;94.72
58769;BME280;44536;47.474;19.056;2022-11-20T04:43:13;100129.22;;;1.74;94.71
58769;BME280;44536;47.474;19.056;2022-11-20T04:46:15;100136.47;;;1.67;95.87
58769;BME280;44536;47.474;19.056;2022-11-20T04:49:18;100127.19;;;1.60;95.74
58769;BME280;44536;47.474;19.056;2022-11-20T04:52:20;100112.56;;;1.56;94.62
58769;BME280;44536;47.474;19.056;2022-11-20T04:55:22;100111.41;;;1.43;97.03
58769;BME280;44536;47.474;19.056;2022-11-20T04:58:24;100101.84;;;1.62;95.19
58769;BME280;44536;47.474;19.056;2022-11-20T05:01:26;100097.31;;;1.47;97.57
58769;BME280;44536;47.474;19.056;2022-11-20T05:04:28;100096.91;;;1.36;98.58
58769;BME280;44536;47.474;19.056;2022-11-20T05:07:30;100097.87;;;1.33;99.01
58769;BME280;44536;47.474;19.056;2022-11-20T05:10:33;100105.28;;;1.44;98.58
58769;BME280;44536;47.474;19.056;2022-11-20T05:13:34;100125.00;;;1.51;98.40
58769;BME280;44536;47.474;19.056;2022-11-20T05:16:37;100119.59;;;1.56;98.99
58769;BME280;44536;47.474;19.056;2022-11-20T05:19:38;100119.94;;;1.67;96.19
58769;BME280;44536;47.474;19.056;2022-11-20T05:22:41;100104.84;;;1.74;94.85
58769;BME280;44536;47.474;19.056;2022-11-20T05:25:43;100096.50;;;1.65;95.62
58769;BME280;44536;47.474;19.056;2022-11-20T05:28:45;100097.13;;;1.52;98.36
58769;BME280;44536;47.474;19.056;2022-11-20T05:31:47;100098.37;;;1.62;97.26
58769;BME280;44536;47.474;19.056;2022-11-20T05:34:49;100081.00;;;1.61;98.02
58769;BME280;44536;47.474;19.056;2022-11-20T05:37:51;100070.28;;;1.67;95.51
58769;BME280;44536;47.474;19.056;2022-11-20T05:40:53;100071.28;;;1.64;97.06
58769;BME280;44536;47.474;19.056;2022-11-20T05:43:55;100074.94;;;1.60;97.03
58769;BME280;44536;47.474;19.056;2022-11-20T05:46:57;100071.44;;;1.80;95.55
58769;BME280;44536;47.474;19.056;2022-11-20T05:49:59;100089.34;;;1.89;92.33
58769;BME280;44536;47.474;19.056;2022-11-20T05:53:02;100094.78;;;1.85;93.42
58769;BME280;44536;47.474;19.056;2022-11-20T05:56:08;100092.94;;;1.87;93.33
58769;BME280;44536;47.474;19.056;2022-11-20T05:59:11;100100.97;;;1.82;94.20
58769;BME280;44536;47.474;19.056;2022-11-20T06:02:13;100101.69;;;1.86;93.49
58769;BME280;44536;47.474;19.056;2022-11-20T06:05:16;100107.53;;;1.72;94.44
58769;BME280;44536;47.474;19.056;2022-11-20T06:08:18;100102.09;;;1.77;93.97
58769;BME280;44536;47.474;19.056;2022-11-20T06:11:20;100101.25;;;1.76;93.72
58769;BME280;44536;47.474;19.056;2022-11-20T06:14:22;100113.41;;;1.77;94.12
58769;BME280;44536;47.474;19.056;2022-11-20T06:17:24;100118.22;;;1.86;96.24
58769;BME280;44536;47.474;19.056;2022-11-20T06:20:26;100101.50;;;1.90;93.47
58769;BME280;44536;47.474;19.056;2022-11-20T06:23:32;100095.91;;;1.98;94.35
58769;BME280;44536;47.474;19.056;2022-11-20T06:26:34;100097.28;;;2.07;93.16
58769;BME280;44536;47.474;19.056;2022-11-20T06:29:36;100106.25;;;2.01;92.29
58769;BME280;44536;47.474;19.056;2022-11-20T06:32:38;100101.16;;;1.98;91.38
58769;BME280;44536;47.474;19.056;2022-11-20T06:35:40;100110.69;;;1.99;91.34
58769;BME280;44536;47.474;19.056;2022-11-20T06:38:42;100128.94;;;2.01;92.15
58769;BME280;44536;47.474;19.056;2022-11-20T06:41:45;100129.41;;;2.09;89.61
58769;BME280;44536;47.474;19.056;2022-11-20T06:44:46;100147.31;;;2.18;89.69
58769;BME280;44536;47.474;19.056;2022-11-20T06:47:49;100162.22;;;2.16;89.09
58769;BME280;44536;47.474;19.056;2022-11-20T06:50:51;100145.50;;;2.39;87.74
58769;BME280;44536;47.474;19.056;2022-11-20T06:53:53;100150.38;;;2.46;87.74
58769;BME280;44536;47.474;19.056;2022-11-20T06:56:55;100155.19;;;2.55;86.87
58769;BME280;44536;47.474;19.056;2022-11-20T06:59:57;100138.87;;;2.67;85.59
58769;BME280;44536;47.474;19.056;2022-11-20T07:03:02;100115.75;;;2.77;86.18
58769;BME280;44536;47.474;19.056;2022-11-20T07:06:04;100130.38;;;2.81;86.61
58769;BME280;44536;47.474;19.056;2022-11-20T07:09:06;100126.28;;;2.76;86.49
58769;BME280;44536;47.474;19.056;2022-11-20T07:12:13;100124.84;;;2.87;86.85
58769;BME280;44536;47.474;19.056;2022-11-20T07:15:15;100125.97;;;3.01;85.53
58769;BME280;44536;47.474;19.056;2022-11-20T07:18:18;100134.22;;;3.10;87.23
58769;BME280;44536;47.474;19.056;2022-11-20T07:21:20;100132.97;;;3.17;86.25
58769;BME280;44536;47.474;19.056;2022-11-20T07:24:22;100141.91;;;3.13;86.86
58769;BME280;44536;47.474;19.056;2022-11-20T07:27:24;100142.75;;;3.14;90.83
58769;BME280;44536;47.474;19.056;2022-11-20T07:30:27;100143.53;;;3.16;87.84
58769;BME280;44536;47.474;19.056;2022-11-20T07:33:29;100152.22;;;2.99;87.84
58769;BME280;44536;47.474;19.056;2022-11-20T07:36:31;100161.72;;;3.02;90.03
58769;BME280;44536;47.474;19.056;2022-11-20T07:39:33;100168.09;;;2.77;91.84
58769;BME280;44536;47.474;19.056;2022-11-20T07:42:35;100170.00;;;2.92;92.16
58769;BME280;44536;47.474;19.056;2022-11-20T07:45:37;100161.53;;;2.87;93.47
58769;BME280;44536;47.474;19.056;2022-11-20T07:48:39;100169.94;;;2.94;94.54
58769;BME280;44536;47.474;19.056;2022-11-20T07:51:41;100168.94;;;2.96;95.04
58769;BME280;44536;47.474;19.056;2022-11-20T07:54:44;100158.03;;;3.06;95.65
58769;BME280;44536;47.474;19.056;2022-11-20T07:57:45;100162.56;;;3.02;94.75
58769;BME280;44536;47.474;19.056;2022-11-20T08:00:48;100167.81;;;2.83;95.58
58769;BME280;44536;47.474;19.056;2022-11-20T08:03:50;100156.91;;;2.92;94.88
58769;BME280;44536;47.474;19.056;2022-11-20T08:06:52;100152.37;;;2.96;95.88
58769;BME280;44536;47.474;19.056;2022-11-20T08:09:55;100141.31;;;3.08;96.32
58769;BME280;44536;47.474;19.056;2022-11-20T08:12:57;100141.53;;;3.21;97.26
58769;BME280;44536;47.474;19.056;2022-11-20T08:16:17;100137.84;;;3.25;97.97
58769;BME280;44536;47.474;19.056;2022-11-20T08:19:19;100148.25;;;3.44;96.79
58769;BME280;44536;47.474;19.056;2022-11-20T08:22:22;100154.59;;;3.57;96.00
58769;BME280;44536;47.474;19.056;2022-11-20T08:25:24;100144.41;;;3.51;97.00
58769;BME280;44536;47.474;19.056;2022-11-20T08:28:27;100134.81;;;3.67;96.91
58769;BME280;44536;47.474;19.056;2022-11-20T08:31:29;100137.97;;;3.74;95.48
58769;BME280;44536;47.474;19.056;2022-11-20T08:34:31;100131.50;;;3.81;94.38
58769;BME280;44536;47.474;19.056;2022-11-20T08:37:33;100138.19;;;3.86;92.58
58769;BME280;44536;47.474;19.056;2022-11-20T08:40:35;100141.28;;;3.94;92.49
58769;BME280;44536;47.474;19.056;2022-11-20T08:43:37;100147.28;;;3.96;92.74
58769;BME280;44536;47.474;19.056;2022-11-20T08:46:40;100150.28;;;4.06;91.97
58769;BME280;44536;47.474;19.056;2022-11-20T08:49:42;100144.75;;;3.95;94.15
58769;BME280;44536;47.474;19.056;2022-11-20T08:52:45;100151.22;;;3.88;93.40
58769;BME280;44536;47.474;19.056;2022-11-20T08:55:47;100155.41;;;3.92;92.60
58769;BME280;44536;47.474;19.056;2022-11-20T08:58:52;100164.50;;;4.02;93.49
58769;BME280;44536;47.474;19.056;2022-11-20T09:02:14;100160.53;;;4.26;91.42
58769;BME280;44536;47.474;19.056;2022-11-20T09:05:17;100162.28;;;4.43;89.93
58769;BME280;44536;47.474;19.056;2022-11-20T09:08:19;100176.16;;;4.45;91.21
58769;BME280;44536;47.474;19.056;2022-11-20T09:11:21;100176.84;;;4.49;91.57
58769;BME280;44536;47.474;19.056;2022-11-20T09:14:23;100179.03;;;4.41;90.02
58769;BME280;44536;47.474;19.056;2022-11-20T09:17:30;100179.72;;;4.44;91.00
58769;BME280;44536;47.474;19.056;2022-11-20T09:20:32;100178.22;;;4.56;89.87
58769;BME280;44536;47.474;19.056;2022-11-20T09:23:35;100183.63;;;4.53;91.47
58769;BME280;44536;47.474;19.056;2022-11-20T09:26:37;100184.13;;;4.44;94.07
58769;BME280;44536;47.474;19.056;2022-11-20T09:29:39;100180.41;;;4.48;91.83
58769;BME280;44536;47.474;19.056;2022-11-20T09:32:41;100183.03;;;4.48;92.17
58769;BME280;44536;47.474;19.056;2022-11-20T09:35:43;100169.16;;;4.61;90.66
58769;BME280;44536;47.474;19.056;2022-11-20T09:38:46;100161.69;;;4.70;89.68
58769;BME280;44536;47.474;19.056;2022-11-20T09:41:55;100161.78;;;4.84;88.29
58769;BME280;44536;47.474;19.056;2022-11-20T09:45:14;100175.50;;;4.89;91.54
58769;BME280;44536;47.474;19.056;2022-11-20T09:48:26;100167.72;;;5.03;89.29
58769;BME280;44536;47.474;19.056;2022-11-20T09:54:37;100154.84;;;5.28;86.31
58769;BME280;44536;47.474;19.056;2022-11-20T09:57:40;100157.03;;;5.06;91.13
58769;BME280;44536;47.474;19.056;2022-11-20T10:00:44;100152.97;;;5.01;89.11
58769;BME280;44536;47.474;19.056;2022-11-20T10:07:12;100147.78;;;5.15;90.44
58769;BME280;44536;47.474;19.056;2022-11-20T10:10:42;100144.56;;;5.10;90.01
58769;BME280;44536;47.474;19.056;2022-11-20T10:13:54;100145.19;;;5.29;91.51
58769;BME280;44536;47.474;19.056;2022-11-20T10:23:28;100108.44;;;6.02;85.85
58769;BME280;44536;47.474;19.056;2022-11-20T10:26:40;100100.03;;;6.38;85.22
58769;BME280;44536;47.474;19.056;2022-11-20T10:29:46;100102.81;;;6.63;82.74
58769;BME280;44536;47.474;19.056;2022-11-20T10:32:51;100104.25;;;7.08;81.65
58769;BME280;44536;47.474;19.056;2022-11-20T10:35:55;100112.03;;;7.49;79.18
58769;BME280;44536;47.474;19.056;2022-11-20T10:39:23;100104.87;;;7.64;76.23
58769;BME280;44536;47.474;19.056;2022-11-20T10:42:35;100098.75;;;7.63;77.55
58769;BME280;44536;47.474;19.056;2022-11-20T10:49:11;100098.19;;;7.46;78.31
58769;BME280;44536;47.474;19.056;2022-11-20T10:52:20;100085.84;;;7.46;77.46
58769;BME280;44536;47.474;19.056;2022-11-20T10:55:28;100088.81;;;7.54;78.10
58769;BME280;44536;47.474;19.056;2022-11-20T11:01:45;100100.66;;;7.61;76.44
58769;BME280;44536;47.474;19.056;2022-11-20T11:04:49;100109.41;;;7.62;77.86
58769;BME280;44536;47.474;19.056;2022-11-20T11:07:53;100124.09;;;7.66;77.71
58769;BME280;44536;47.474;19.056;2022-11-20T11:10:59;100131.03;;;7.54;76.22
58769;BME280;44536;47.474;19.056;2022-11-20T11:14:07;100130.91;;;7.43;78.20
58769;BME280;44536;47.474;19.056;2022-11-20T11:17:18;100134.84;;;7.11;78.33
58769;BME280;44536;47.474;19.056;2022-11-20T11:20:23;100127.63;;;7.27;76.97
58769;BME280;44536;47.474;19.056;2022-11-20T11:26:34;100125.56;;;7.18;77.92
58769;BME280;44536;47.474;19.056;2022-11-20T11:29:36;100125.69;;;7.16;78.38
58769;BME280;44536;47.474;19.056;2022-11-20T11:32:38;100120.09;;;7.21;80.62
58769;BME280;44536;47.474;19.056;2022-11-20T11:35:45;100116.31;;;7.38;78.91
58769;BME280;44536;47.474;19.056;2022-11-20T11:38:52;100115.81;;;7.45;79.55
58769;BME280;44536;47.474;19.056;2022-11-20T11:41:55;100108.16;;;7.68;77.76
58769;BME280;44536;47.474;19.056;2022-11-20T11:44:59;100109.31;;;7.89;77.75
58769;BME280;44536;47.474;19.056;2022-11-20T11:48:07;100098.94;;;8.11;75.69
58769;BME280;44536;47.474;19.056;2022-11-20T11:51:10;100101.06;;;8.06;74.68
58769;BME280;44536;47.474;19.056;2022-11-20T11:54:17;100092.53;;;7.64;76.22
58769;BME280;44536;47.474;19.056;2022-11-20T12:00:39;100080.78;;;7.81;75.10
58769;BME280;44536;47.474;19.056;2022-11-20T12:03:43;100078.03;;;7.83;76.37
58769;BME280;44536;47.474;19.056;2022-11-20T12:06:50;100084.06;;;7.97;76.20
58769;BME280;44536;47.474;19.056;2022-11-20T12:09:53;100093.44;;;8.14;75.30
58769;BME280;44536;47.474;19.056;2022-11-20T12:13:00;100083.09;;;8.24;74.99
58769;BME280;44536;47.474;19.056;2022-11-20T12:16:04;100082.34;;;8.35;75.98
58769;BME280;44536;47.474;19.056;2022-11-20T12:19:13;100085.66;;;8.00;75.44
58769;BME280;44536;47.474;19.056;2022-11-20T12:25:22;100084.06;;;7.59;74.22
58769;BME280;44536;47.474;19.056;2022-11-20T12:31:36;100067.25;;;7.22;77.52
58769;BME280;44536;47.474;19.056;2022-11-20T12:37:46;100067.91;;;7.26;76.48
58769;BME280;44536;47.474;19.056;2022-11-20T12:41:05;100072.97;;;6.89;77.98
58769;BME280;44536;47.474;19.056;2022-11-20T12:44:20;100078.81;;;6.80;78.95
58769;BME280;44536;47.474;19.056;2022-11-20T12:48:03;100080.91;;;7.02;77.09
58769;BME280;44536;47.474;19.056;2022-11-20T12:51:21;100080.50;;;7.08;77.08
58769;BME280;44536;47.474;19.056;2022-11-20T12:54:40;100100.50;;;6.98;76.89
58769;BME280;44536;47.474;19.056;2022-11-20T12:57:55;100096.09;;;6.72;78.01
58769;BME280;44536;47.474;19.056;2022-11-20T13:08:00;100088.72;;;6.77;79.13
58769;BME280;44536;47.474;19.056;2022-11-20T13:14:32;100080.78;;;6.64;78.86
58769;BME280;44536;47.474;19.056;2022-11-20T13:17:33;100094.06;;;6.62;79.15
58769;BME280;44536;47.474;19.056;2022-11-20T13:20:42;100095.66;;;6.65;78.66
58769;BME280;44536;47.474;19.056;2022-11-20T13:23:44;100089.78;;;6.74;79.33
58769;BME280;44536;47.474;19.056;2022-11-20T13:26:47;100086.44;;;6.85;78.79
58769;BME280;44536;47.474;19.056;2022-11-20T13:29:59;100090.12;;;7.09;78.25
58769;BME280;44536;47.474;19.056;2022-11-20T13:33:04;100080.03;;;6.89;78.52
58769;BME280;44536;47.474;19.056;2022-11-20T13:36:20;100071.66;;;6.82;77.86
58769;BME280;44536;47.474;19.056;2022-11-20T13:42:28;100059.59;;;6.92;77.08
58769;BME280;44536;47.474;19.056;2022-11-20T13:45:30;100048.09;;;6.93;77.17
58769;BME280;44536;47.474;19.056;2022-11-20T13:48:34;100054.88;;;6.71;78.23
58769;BME280;44536;47.474;19.056;2022-11-20T13:51:42;100056.16;;;6.51;78.98
58769;BME280;44536;47.474;19.056;2022-11-20T13:54:50;100046.50;;;6.37;81.00
58769;BME280;44536;47.474;19.056;2022-11-20T14:04:13;100050.03;;;5.81;82.97
58769;BME280;44536;47.474;19.056;2022-11-20T14:07:17;100053.13;;;5.59;83.80
58769;BME280;44536;47.474;19.056;2022-11-20T14:10:21;100052.09;;;5.47;84.30
58769;BME280;44536;47.474;19.056;2022-11-20T14:13:31;100046.16;;;5.44;85.46
58769;BME280;44536;47.474;19.056;2022-11-20T14:16:34;100040.81;;;5.45;84.78
58769;BME280;44536;47.474;19.056;2022-11-20T14:19:37;100044.63;;;5.25;86.97
58769;BME280;44536;47.474;19.056;2022-11-20T14:22:47;100050.25;;;5.19;87.10
58769;BME280;44536;47.474;19.056;2022-11-20T14:25:50;100048.00;;;5.13;87.40
58769;BME280;44536;47.474;19.056;2022-11-20T14:28:52;100062.56;;;5.19;88.21
58769;BME280;44536;47.474;19.056;2022-11-20T14:31:54;100056.25;;;5.21;87.22
58769;BME280;44536;47.474;19.056;2022-11-20T14:35:06;100064.13;;;5.21;86.43
58769;BME280;44536;47.474;19.056;2022-11-20T14:38:11;100070.63;;;5.16;87.39
58769;BME280;44536;47.474;19.056;2022-11-20T14:41:18;100077.00;;;5.12;87.03
58769;BME280;44536;47.474;19.056;2022-11-20T14:44:25;100083.63;;;5.03;87.80
58769;BME280;44536;47.474;19.056;2022-11-20T14:47:29;100077.78;;;4.98;88.05
58769;BME280;44536;47.474;19.056;2022-11-20T14:50:32;100082.88;;;4.85;88.40
58769;BME280;44536;47.474;19.056;2022-11-20T14:53:34;100085.94;;;4.78;88.58
58769;BME280;44536;47.474;19.056;2022-11-20T14:56:36;100078.66;;;4.83;88.72
58769;BME280;44536;47.474;19.056;2022-11-20T14:59:38;100086.19;;;4.73;89.78
58769;BME280;44536;47.474;19.056;2022-11-20T15:02:47;100089.44;;;4.62;89.73
58769;BME280;44536;47.474;19.056;2022-11-20T15:05:50;100090.72;;;4.55;90.52
58769;BME280;44536;47.474;19.056;2022-11-20T15:08:52;100089.53;;;4.45;91.50
58769;BME280;44536;47.474;19.056;2022-11-20T15:11:55;100097.06;;;4.36;91.82
58769;BME280;44536;47.474;19.056;2022-11-20T15:14:58;100095.00;;;4.25;93.30
58769;BME280;44536;47.474;19.056;2022-11-20T15:18:01;100098.16;;;4.16;93.84
58769;BME280;44536;47.474;19.056;2022-11-20T15:21:05;100097.47;;;4.12;94.03
58769;BME280;44536;47.474;19.056;2022-11-20T15:24:10;100095.25;;;4.05;94.05
58769;BME280;44536;47.474;19.056;2022-11-20T15:27:12;100097.19;;;4.01;94.56
58769;BME280;44536;47.474;19.056;2022-11-20T15:30:15;100090.91;;;3.88;94.86
58769;BME280;44536;47.474;19.056;2022-11-20T15:33:18;100101.28;;;4.07;94.63
58769;BME280;44536;47.474;19.056;2022-11-20T15:36:20;100100.16;;;3.95;95.01
58769;BME280;44536;47.474;19.056;2022-11-20T15:39:22;100100.09;;;3.79;95.49
58769;BME280;44536;47.474;19.056;2022-11-20T15:42:24;100097.34;;;3.65;96.27
58769;BME280;44536;47.474;19.056;2022-11-20T15:45:26;100103.78;;;3.59;97.33
58769;BME280;44536;47.474;19.056;2022-11-20T15:48:35;100104.78;;;3.57;98.21
58769;BME280;44536;47.474;19.056;2022-11-20T15:51:38;100111.66;;;3.59;97.95
58769;BME280;44536;47.474;19.056;2022-11-20T15:54:41;100106.56;;;3.56;98.34
58769;BME280;44536;47.474;19.056;2022-11-20T15:57:43;100101.34;;;3.72;97.43
58769;BME280;44536;47.474;19.056;2022-11-20T16:00:45;100097.25;;;3.84;96.50
58769;BME280;44536;47.474;19.056;2022-11-20T16:03:48;100099.22;;;3.96;95.73
58769;BME280;44536;47.474;19.056;2022-11-20T16:06:50;100106.03;;;4.16;93.87
58769;BME280;44536;47.474;19.056;2022-11-20T16:09:52;100096.88;;;4.23;93.56
58769;BME280;44536;47.474;19.056;2022-11-20T16:12:54;100096.78;;;4.24;93.27
58769;BME280;44536;47.474;19.056;2022-11-20T16:16:22;100097.47;;;4.28;92.91
58769;BME280;44536;47.474;19.056;2022-11-20T16:19:24;100095.44;;;4.33;92.34
58769;BME280;44536;47.474;19.056;2022-11-20T16:22:27;100089.16;;;4.20;92.93
58769;BME280;44536;47.474;19.056;2022-11-20T16:25:28;100091.72;;;4.37;92.48
58769;BME280;44536;47.474;19.056;2022-11-20T16:28:31;100092.25;;;4.44;91.75
58769;BME280;44536;47.474;19.056;2022-11-20T16:31:33;100087.16;;;4.25;92.99
58769;BME280;44536;47.474;19.056;2022-11-20T16:34:35;100087.31;;;4.22;93.08
58769;BME280;44536;47.474;19.056;2022-11-20T16:37:37;100093.00;;;4.14;93.68
58769;BME280;44536;47.474;19.056;2022-11-20T16:40:40;100096.28;;;4.33;93.15
58769;BME280;44536;47.474;19.056;2022-11-20T16:43:47;100086.66;;;4.34;93.00
58769;BME280;44536;47.474;19.056;2022-11-20T16:46:49;100085.13;;;4.46;92.66
58769;BME280;44536;47.474;19.056;2022-11-20T16:49:52;100086.47;;;4.21;93.98
58769;BME280;44536;47.474;19.056;2022-11-20T16:52:54;100081.03;;;4.24;93.96
58769;BME280;44536;47.474;19.056;2022-11-20T16:55:56;100081.66;;;4.29;93.43
58769;BME280;44536;47.474;19.056;2022-11-20T16:58:59;100080.87;;;4.27;93.73
58769;BME280;44536;47.474;19.056;2022-11-20T17:02:01;100081.41;;;4.34;93.35
58769;BME280;44536;47.474;19.056;2022-11-20T17:05:03;100072.66;;;4.02;94.60